Time;durP1;ratioP1;P1;durP2;ratioP2;P2;SDS_P1;SDS_P2;PMS_P1;PMS_P2;Temp;Humidity;BMP_temperature;BMP_pressure;BME280_temperature;BME280_humidity;BME280_pressure;Samples;Min_cycle;Max_cycle;Signal;HPM_P1;HPM_P2
2022/02/03 00:01:09;;;;;;;44.17;20.77;;;8.60;99.90;;;;;;2610823;54;20846;-76
2022/02/03 00:03:48;;;;;;;52.73;28.37;;;8.60;99.90;;;;;;2612098;54;20424;-77
2022/02/03 00:06:20;;;;;;;48.33;24.63;;;8.60;99.90;;;;;;2611435;54;20440;-76
2022/02/03 00:23:40;;;;;;;51.37;25.47;;;8.70;99.90;;;;;;2611595;54;20956;-76
2022/02/03 00:25:45;;;;;;;43.00;21.50;;;8.70;99.90;;;;;;2610548;47;20423;-76
2022/02/03 00:28:24;;;;;;;52.10;27.63;;;8.60;99.90;;;;;;2610406;51;20551;-78
2022/02/03 00:33:30;;;;;;;48.70;25.00;;;8.70;99.90;;;;;;2610674;54;20424;-76
2022/02/03 00:49:11;;;;;;;46.30;24.13;;;8.70;99.90;;;;;;2612817;54;21015;-76
2022/02/03 00:51:41;;;;;;;52.37;25.43;;;8.80;99.90;;;;;;2612386;54;20498;-76
2022/02/03 00:54:10;;;;;;;52.63;23.50;;;8.80;99.90;;;;;;2611923;54;20511;-76
2022/02/03 00:56:41;;;;;;;40.80;21.70;;;8.80;99.90;;;;;;2611086;54;20404;-76
2022/02/03 00:59:13;;;;;;;39.37;21.30;;;8.80;99.90;;;;;;2610498;47;20437;-76
2022/02/03 01:01:48;;;;;;;51.17;24.37;;;8.70;99.90;;;;;;2611861;54;20403;-76
2022/02/03 01:04:15;;;;;;;39.53;21.43;;;8.80;99.90;;;;;;2611273;54;20401;-75
2022/02/03 01:06:49;;;;;;;33.10;16.80;;;8.80;99.90;;;;;;2612272;47;20438;-76
2022/02/03 01:09:27;;;;;;;46.27;23.67;;;8.80;99.90;;;;;;2612798;54;20454;-76
2022/02/03 01:12:03;;;;;;;47.60;24.30;;;8.80;99.90;;;;;;2614647;54;20418;-75
2022/02/03 01:14:44;;;;;;;44.93;27.13;;;8.90;99.90;;;;;;2614372;54;20387;-75
2022/02/03 01:45:00;;;;;;;47.83;27.13;;;8.90;99.90;;;;;;2613593;47;20407;-76
2022/02/03 01:52:44;;;;;;;43.23;24.20;;;9.10;99.90;;;;;;2614009;47;20434;-76
2022/02/03 01:55:19;;;;;;;33.30;18.53;;;9.00;99.90;;;;;;2614309;54;20471;-76
2022/02/03 01:57:47;;;;;;;38.83;22.53;;;9.00;99.90;;;;;;2613729;54;20944;-75
2022/02/03 02:00:16;;;;;;;43.50;25.47;;;9.00;99.90;;;;;;2613310;54;20423;-76
2022/02/03 02:03:13;;;;;;;32.97;20.70;;;9.00;99.90;;;;;;2613106;54;20419;-76
2022/02/03 02:06:03;;;;;;;42.87;23.90;;;8.90;99.90;;;;;;2613702;54;20407;-75
2022/02/03 02:08:57;;;;;;;50.40;27.47;;;9.00;99.90;;;;;;2613085;47;20432;-77
2022/02/03 02:11:37;;;;;;;42.83;26.50;;;8.90;99.90;;;;;;2614815;39;20838;-76
2022/02/03 02:40:00;;;;;;;36.30;19.90;;;8.90;99.90;;;;;;2612726;54;20453;-76
2022/02/03 02:42:37;;;;;;;37.40;22.00;;;8.90;99.90;;;;;;2612524;54;20414;-76
2022/02/03 02:45:10;;;;;;;33.63;19.93;;;8.90;99.90;;;;;;2613388;54;20386;-75
2022/02/03 02:47:42;;;;;;;31.13;17.90;;;8.90;99.90;;;;;;2612435;54;21302;-76
2022/02/03 02:50:14;;;;;;;41.40;15.67;;;8.90;99.90;;;;;;2611628;39;20778;-76
2022/02/03 02:53:08;;;;;;;38.67;21.27;;;8.80;99.90;;;;;;2611927;54;20416;-75
2022/02/03 02:56:06;;;;;;;41.53;23.40;;;8.90;99.90;;;;;;2612750;39;20971;-76
2022/02/03 03:30:35;;;;;;;38.37;17.80;;;8.80;99.90;;;;;;2613271;54;20395;-75
2022/02/03 03:35:46;;;;;;;40.73;23.40;;;8.80;99.90;;;;;;2614598;47;20523;-76
2022/02/03 03:38:17;;;;;;;27.17;16.87;;;8.90;99.90;;;;;;2613559;54;20948;-76
2022/02/03 03:40:48;;;;;;;35.13;20.17;;;8.80;99.90;;;;;;2613308;54;20416;-76
2022/02/03 03:43:26;;;;;;;44.00;24.23;;;8.80;99.90;;;;;;2613418;51;20955;-76
2022/02/03 03:45:53;;;;;;;28.47;17.50;;;8.80;99.90;;;;;;2613945;54;20410;-76
2022/02/03 03:48:24;;;;;;;43.07;22.67;;;8.80;99.90;;;;;;2614142;39;20769;-74
2022/02/03 03:50:52;;;;;;;28.03;15.67;;;8.80;99.90;;;;;;2614161;54;20423;-76
2022/02/03 03:53:36;;;;;;;23.67;13.93;;;8.80;99.90;;;;;;2614076;54;20459;-75
2022/02/03 05:07:01;;;;;;;19.50;15.30;;;8.50;99.90;;;;;;2613872;54;20381;-76
2022/02/03 05:13:41;;;;;;;18.33;9.73;;;8.50;99.90;;;;;;2613614;46;20488;-75
2022/02/03 05:26:09;;;;;;;19.23;11.67;;;8.40;99.90;;;;;;2609391;47;21022;-75
2022/02/03 05:46:03;;;;;;;14.00;11.17;;;8.40;99.90;;;;;;2613503;54;20418;-75
2022/02/03 06:07:53;;;;;;;10.13;8.00;;;8.40;99.90;;;;;;2612518;52;20501;-77
2022/02/03 06:15:37;;;;;;;9.23;6.33;;;8.30;99.90;;;;;;2610410;47;20423;-76
2022/02/03 06:29:05;;;;;;;10.60;9.60;;;8.30;99.90;;;;;;2607741;46;21434;-77
2022/02/03 06:31:37;;;;;;;9.67;6.73;;;8.30;99.90;;;;;;2610600;54;20420;-77
2022/02/03 06:34:04;;;;;;;9.73;7.27;;;8.30;99.90;;;;;;2609794;54;20514;-75
2022/02/03 06:36:30;;;;;;;13.67;11.40;;;8.30;99.90;;;;;;2607721;54;20394;-76
2022/02/03 06:38:56;;;;;;;16.47;10.00;;;8.30;99.90;;;;;;2608091;47;20423;-76
2022/02/03 06:41:22;;;;;;;10.77;8.43;;;8.20;99.90;;;;;;2611308;39;20780;-76
2022/02/03 06:43:47;;;;;;;15.53;10.47;;;8.20;99.90;;;;;;2611505;54;20746;-77
2022/02/03 06:46:14;;;;;;;14.17;10.07;;;8.20;99.90;;;;;;2610864;47;20182;-77
2022/02/03 06:48:43;;;;;;;14.80;10.80;;;8.10;99.90;;;;;;2607578;54;20976;-76
2022/02/03 06:51:16;;;;;;;10.60;6.67;;;8.10;99.90;;;;;;2609555;54;20399;-77
2022/02/03 06:53:45;;;;;;;13.80;10.10;;;8.10;99.90;;;;;;2609604;47;20434;-76
2022/02/03 06:56:25;;;;;;;11.90;10.70;;;8.10;99.90;;;;;;2607940;54;22225;-77
2022/02/03 06:58:56;;;;;;;12.13;7.50;;;8.10;99.90;;;;;;2605656;47;20415;-76
2022/02/03 07:01:43;;;;;;;14.17;9.47;;;8.10;99.90;;;;;;2609879;54;20418;-77
2022/02/03 07:04:19;;;;;;;16.80;11.53;;;8.10;99.90;;;;;;2605765;54;20434;-76
2022/02/03 07:06:45;;;;;;;7.40;6.20;;;8.00;99.90;;;;;;2606751;54;20433;-76
2022/02/03 07:09:12;;;;;;;16.53;10.43;;;8.00;99.90;;;;;;2609877;47;20439;-76
2022/02/03 07:11:40;;;;;;;10.47;8.67;;;8.00;99.90;;;;;;2614006;54;20462;-76
2022/02/03 07:14:08;;;;;;;16.50;11.40;;;8.10;99.90;;;;;;2613794;54;20431;-76
2022/02/03 07:16:42;;;;;;;13.83;9.93;;;8.00;99.90;;;;;;2615139;54;20427;-76
2022/02/03 07:19:08;;;;;;;15.20;10.50;;;7.90;99.90;;;;;;2614190;47;20415;-76
2022/02/03 07:21:34;;;;;;;21.00;7.40;;;8.10;99.90;;;;;;2615701;54;20416;-77
2022/02/03 07:24:00;;;;;;;13.87;10.43;;;8.00;99.90;;;;;;2614448;47;20515;-76
2022/02/03 07:26:25;;;;;;;12.97;9.83;;;7.90;99.90;;;;;;2615697;46;20174;-76
2022/02/03 07:28:51;;;;;;;13.63;9.97;;;7.90;99.90;;;;;;2614250;54;20273;-75
2022/02/03 07:31:17;;;;;;;15.40;9.37;;;7.90;99.90;;;;;;2615317;47;20171;-76
2022/02/03 07:33:43;;;;;;;13.90;9.37;;;7.90;99.90;;;;;;2614612;54;20161;-76
2022/02/03 07:36:09;;;;;;;14.43;9.00;;;7.90;99.90;;;;;;2615214;39;21207;-76
2022/02/03 07:38:38;;;;;;;17.80;11.27;;;7.90;99.90;;;;;;2614516;54;20161;-76
2022/02/03 07:41:03;;;;;;;16.37;11.10;;;7.90;99.90;;;;;;2615158;54;20446;-76
2022/02/03 07:43:29;;;;;;;17.03;9.63;;;7.90;99.90;;;;;;2614470;39;20807;-76
2022/02/03 07:45:57;;;;;;;13.23;9.33;;;7.90;99.90;;;;;;2613664;47;20430;-76
2022/02/03 07:48:23;;;;;;;15.43;9.83;;;7.90;99.90;;;;;;2615543;54;20134;-76
2022/02/03 07:50:49;;;;;;;16.20;9.97;;;7.90;99.90;;;;;;2615025;54;20445;-76
2022/02/03 07:53:15;;;;;;;8.23;6.47;;;7.90;99.90;;;;;;2614765;54;20968;-76
2022/02/03 07:55:41;;;;;;;15.10;9.67;;;7.90;99.90;;;;;;2615447;54;20142;-77
2022/02/03 07:58:07;;;;;;;15.50;10.00;;;7.90;99.90;;;;;;2613328;54;20542;-76
2022/02/03 08:00:33;;;;;;;23.37;8.80;;;7.90;99.90;;;;;;2614994;54;20956;-76
2022/02/03 08:02:58;;;;;;;7.67;6.20;;;7.90;99.90;;;;;;2615965;39;20645;-77
2022/02/03 08:05:26;;;;;;;8.40;5.77;;;7.90;99.90;;;;;;2614915;54;20174;-76
2022/02/03 08:08:11;;;;;;;16.90;8.03;;;8.00;99.90;;;;;;2615839;39;20665;-76
2022/02/03 08:10:42;;;;;;;12.20;9.00;;;8.00;99.90;;;;;;2614716;54;20433;-76
2022/02/03 08:13:12;;;;;;;15.07;10.43;;;8.00;99.90;;;;;;2615011;49;20400;-75
2022/02/03 08:15:40;;;;;;;17.70;10.90;;;8.00;99.90;;;;;;2614946;54;20411;-76
2022/02/03 08:18:07;;;;;;;16.70;12.50;;;8.00;99.90;;;;;;2614645;54;20366;-77
2022/02/03 08:20:33;;;;;;;17.70;13.60;;;8.10;99.90;;;;;;2614563;47;20652;-76
2022/02/03 08:24:14;;;;;;;15.07;11.70;;;8.00;99.90;;;;;;2615192;54;20427;-76
2022/02/03 08:31:23;;;;;;;16.13;12.40;;;7.90;99.90;;;;;;2614496;54;20953;-77
2022/02/03 08:33:53;;;;;;;17.27;10.90;;;7.90;99.90;;;;;;2615389;54;20399;-76
2022/02/03 08:36:21;;;;;;;13.97;10.47;;;7.90;99.90;;;;;;2616662;54;20415;-77
2022/02/03 08:38:56;;;;;;;15.77;11.60;;;7.90;99.90;;;;;;2614533;54;21109;-76
2022/02/03 08:41:25;;;;;;;23.73;11.50;;;7.90;99.90;;;;;;2615897;54;20477;-76
2022/02/03 08:43:50;;;;;;;14.33;9.50;;;7.90;99.90;;;;;;2615128;54;21047;-76
2022/02/03 08:46:16;;;;;;;14.63;7.00;;;8.00;99.90;;;;;;2615360;47;20452;-76
2022/02/03 08:48:43;;;;;;;21.00;13.57;;;7.90;99.90;;;;;;2615095;54;20146;-76
2022/02/03 08:51:10;;;;;;;10.37;7.30;;;7.90;99.90;;;;;;2615740;54;20904;-76
2022/02/03 08:53:41;;;;;;;15.73;10.10;;;7.90;99.90;;;;;;2614416;39;20912;-76
2022/02/03 09:58:17;;;;;;;16.73;11.90;;;7.90;99.90;;;;;;2615129;54;20453;-76
2022/02/03 10:06:11;;;;;;;16.30;8.60;;;8.00;99.90;;;;;;2615983;54;20413;-77
2022/02/03 10:08:43;;;;;;;17.77;14.30;;;8.00;99.90;;;;;;2614105;47;20426;-75
2022/02/03 10:11:19;;;;;;;15.70;9.20;;;8.00;99.90;;;;;;2615207;54;20478;-76
2022/02/03 10:13:46;;;;;;;11.20;8.10;;;8.00;99.90;;;;;;2614982;54;20427;-76
2022/02/03 10:16:14;;;;;;;21.07;10.90;;;8.00;99.90;;;;;;2616292;54;20423;-77
2022/02/03 10:18:41;;;;;;;22.87;12.40;;;8.10;99.90;;;;;;2615007;54;20964;-76
2022/02/03 10:21:11;;;;;;;16.17;9.27;;;8.00;99.90;;;;;;2615577;47;20983;-76
2022/02/03 10:24:00;;;;;;;22.60;10.67;;;8.10;99.90;;;;;;2614541;47;20431;-76
2022/02/03 10:26:33;;;;;;;16.63;10.53;;;8.20;99.90;;;;;;2614272;47;20415;-77
2022/02/03 10:29:01;;;;;;;16.27;11.03;;;8.10;99.90;;;;;;2615000;47;20435;-77
2022/02/03 10:31:35;;;;;;;14.23;11.87;;;8.10;99.90;;;;;;2614677;47;20518;-76
2022/02/03 10:34:06;;;;;;;16.53;10.83;;;8.20;99.90;;;;;;2615593;39;20798;-76
2022/02/03 10:56:40;;;;;;;11.40;6.70;;;8.30;99.90;;;;;;2614217;54;20436;-75
2022/02/03 10:58:50;;;;;;;14.67;10.00;;;8.30;99.90;;;;;;2613787;54;20451;-77
2022/02/03 11:06:47;;;;;;;13.13;9.00;;;8.30;99.90;;;;;;2614259;54;20411;-77
2022/02/03 11:09:22;;;;;;;13.40;5.23;;;8.40;99.90;;;;;;2614516;54;20470;-76
2022/02/03 11:11:56;;;;;;;11.40;8.70;;;8.40;99.90;;;;;;2613835;47;20439;-77
2022/02/03 11:14:24;;;;;;;8.80;7.30;;;8.50;99.90;;;;;;2614546;54;20435;-76
2022/02/03 11:16:52;;;;;;;10.07;7.60;;;8.50;99.90;;;;;;2614703;54;20431;-76
2022/02/03 11:19:21;;;;;;;9.13;7.00;;;8.50;99.90;;;;;;2614840;47;20431;-75
2022/02/03 11:21:52;;;;;;;8.00;5.50;;;8.40;99.90;;;;;;2614668;39;20784;-75
2022/02/03 11:24:25;;;;;;;10.37;7.50;;;8.30;99.90;;;;;;2615397;47;20431;-76
2022/02/03 11:38:00;;;;;;;11.90;7.63;;;8.20;99.90;;;;;;2615005;47;20426;-75
2022/02/03 11:52:12;;;;;;;12.13;8.47;;;8.10;99.90;;;;;;2614351;54;20450;-76
2022/02/03 11:54:58;;;;;;;7.00;5.67;;;8.30;99.90;;;;;;2612344;47;20480;-75
2022/02/03 12:16:23;;;;;;;10.43;6.00;;;7.40;99.90;;;;;;2613397;54;20162;-76
2022/02/03 12:30:26;;;;;;;6.20;5.23;;;7.20;99.90;;;;;;2615626;46;20427;-76
2022/02/03 12:36:56;;;;;;;11.00;8.70;;;7.20;99.90;;;;;;2613912;54;20510;-76
2022/02/03 12:38:36;;;;;;;25.27;6.70;;;7.00;99.90;;;;;;2615198;47;20427;-76
2022/02/03 12:41:08;;;;;;;7.70;6.27;;;7.00;99.90;;;;;;2615997;39;20840;-76
2022/02/03 12:43:39;;;;;;;4.90;4.43;;;6.90;99.90;;;;;;2615264;47;20439;-76
2022/02/03 12:46:06;;;;;;;8.03;5.57;;;7.00;99.90;;;;;;2615652;54;20425;-77
2022/02/03 12:48:35;;;;;;;16.23;8.40;;;7.00;99.90;;;;;;2614745;47;21018;-76
2022/02/03 12:51:02;;;;;;;8.20;7.07;;;7.10;99.90;;;;;;2615533;54;20459;-76
2022/02/03 12:53:38;;;;;;;8.43;5.93;;;7.10;99.90;;;;;;2615736;54;20391;-76
2022/02/03 12:56:06;;;;;;;9.53;6.63;;;7.10;99.90;;;;;;2615880;54;20406;-76
2022/02/03 12:58:42;;;;;;;9.77;7.07;;;7.10;99.90;;;;;;2615957;54;20385;-76
2022/02/03 13:01:28;;;;;;;9.73;6.90;;;7.20;99.90;;;;;;2615625;54;20951;-76
2022/02/03 13:03:55;;;;;;;11.77;7.70;;;7.10;99.90;;;;;;2614733;54;20490;-77
2022/02/03 13:06:25;;;;;;;8.40;7.20;;;7.20;99.90;;;;;;2615443;54;21518;-76
2022/02/03 13:09:00;;;;;;;8.97;6.50;;;7.20;99.90;;;;;;2615315;51;20468;-76
2022/02/03 13:11:40;;;;;;;9.17;6.80;;;7.30;99.90;;;;;;2615347;51;20438;-75
2022/02/03 13:14:22;;;;;;;8.37;4.90;;;7.20;99.90;;;;;;2615693;54;20423;-76
2022/02/03 13:17:08;;;;;;;7.47;6.70;;;7.30;99.90;;;;;;2615829;39;21028;-77
2022/02/03 13:19:52;;;;;;;7.77;5.70;;;7.30;99.90;;;;;;2614980;54;20471;-75
2022/02/03 13:22:34;;;;;;;8.87;5.53;;;7.40;99.90;;;;;;2614887;54;21162;-76
2022/02/03 13:25:11;;;;;;;7.67;5.40;;;7.30;99.90;;;;;;2616839;39;20789;-77
2022/02/03 13:30:14;;;;;;;9.17;6.50;;;7.30;99.90;;;;;;2615430;47;20592;-76
2022/02/03 13:32:48;;;;;;;8.70;5.60;;;7.30;99.90;;;;;;2615377;39;21214;-76
2022/02/03 13:35:30;;;;;;;8.40;6.80;;;7.40;99.90;;;;;;2615673;47;20422;-76
2022/02/03 13:38:11;;;;;;;7.70;5.33;;;7.40;99.90;;;;;;2614652;54;20419;-76
2022/02/03 13:40:37;;;;;;;8.83;7.50;;;7.40;99.90;;;;;;2615762;47;20422;-76
2022/02/03 13:43:07;;;;;;;7.20;5.07;;;7.40;99.90;;;;;;2615142;39;20785;-77
2022/02/03 13:45:34;;;;;;;8.90;6.17;;;7.40;99.90;;;;;;2615049;47;20423;-76
2022/02/03 13:48:02;;;;;;;7.53;6.00;;;7.40;99.90;;;;;;2615549;46;20454;-76
2022/02/03 13:50:30;;;;;;;12.90;7.97;;;7.50;99.90;;;;;;2615236;54;20419;-77
2022/02/03 14:20:23;;;;;;;6.53;5.30;;;7.80;99.90;;;;;;2615216;54;20427;-76
2022/02/03 14:23:24;;;;;;;9.37;7.30;;;7.80;99.90;;;;;;2615082;54;20932;-77
2022/02/03 14:28:32;;;;;;;11.50;5.77;;;7.80;99.90;;;;;;2615279;39;20910;-76
2022/02/03 14:31:03;;;;;;;13.77;7.83;;;7.70;99.90;;;;;;2615533;54;20388;-75
2022/02/03 14:33:33;;;;;;;11.43;7.40;;;7.90;99.90;;;;;;2614503;54;20434;-76
2022/02/03 14:36:14;;;;;;;6.40;5.10;;;8.10;99.90;;;;;;2616017;54;20419;-76
2022/02/03 14:39:00;;;;;;;6.50;5.77;;;8.00;99.90;;;;;;2614552;39;20820;-77
2022/02/03 14:41:35;;;;;;;5.40;4.60;;;7.70;99.90;;;;;;2615548;47;20501;-76
2022/02/03 14:44:02;;;;;;;10.90;7.37;;;7.80;99.90;;;;;;2615600;54;20426;-76
2022/02/03 14:46:28;;;;;;;6.67;6.03;;;7.90;99.90;;;;;;2615894;54;20391;-77
2022/02/03 14:48:54;;;;;;;16.10;6.97;;;8.10;99.90;;;;;;2614618;54;20955;-77
2022/02/03 14:51:26;;;;;;;12.47;8.93;;;7.70;99.90;;;;;;2615435;54;20432;-76
2022/02/03 14:58:00;;;;;;;7.37;6.53;;;7.80;99.90;;;;;;2615213;54;20575;-76
2022/02/03 14:59:24;;;;;;;8.40;7.53;;;7.70;99.90;;;;;;2615822;39;20773;-76
2022/02/03 15:01:50;;;;;;;9.27;8.27;;;7.70;99.90;;;;;;2614239;54;20415;-76
2022/02/03 15:04:25;;;;;;;9.43;6.13;;;7.70;99.90;;;;;;2613955;47;21419;-78
2022/02/03 15:06:58;;;;;;;7.90;4.63;;;7.60;99.90;;;;;;2614563;47;20682;-77
2022/02/03 15:10:00;;;;;;;10.93;7.90;;;7.50;99.90;;;;;;2615621;54;20384;-76
2022/02/03 15:13:01;;;;;;;5.70;5.10;;;7.60;99.90;;;;;;2615505;47;21242;-76
2022/02/03 15:15:00;;;;;;;11.73;7.50;;;7.70;99.90;;;;;;2614368;54;20444;-76
2022/02/03 15:17:29;;;;;;;12.03;7.50;;;7.60;99.90;;;;;;2615638;54;20423;-77
2022/02/03 15:19:55;;;;;;;8.20;6.70;;;7.50;99.90;;;;;;2615557;54;21001;-76
2022/02/03 15:22:21;;;;;;;6.30;5.03;;;7.50;99.90;;;;;;2615204;47;20530;-76
2022/02/03 15:24:47;;;;;;;9.80;6.30;;;7.50;99.90;;;;;;2615192;47;20463;-76
2022/02/03 15:27:15;;;;;;;10.60;7.20;;;7.50;99.90;;;;;;2615117;54;20415;-76
2022/02/03 15:29:47;;;;;;;7.63;6.20;;;7.50;99.90;;;;;;2615625;54;20400;-75
2022/02/03 15:32:14;;;;;;;8.60;6.77;;;7.40;99.90;;;;;;2614409;54;20411;-77
2022/02/03 15:34:40;;;;;;;7.70;6.93;;;7.50;99.90;;;;;;2615291;47;20538;-77
2022/02/03 15:37:13;;;;;;;8.20;5.70;;;7.60;99.90;;;;;;2615393;54;20386;-76
2022/02/03 15:39:46;;;;;;;6.60;5.67;;;7.60;99.90;;;;;;2614938;51;20415;-77
2022/02/03 15:42:13;;;;;;;8.13;7.30;;;7.50;99.90;;;;;;2616007;54;20506;-75
2022/02/03 15:44:42;;;;;;;5.63;4.80;;;7.60;99.90;;;;;;2614471;39;20997;-76
2022/02/03 15:47:19;;;;;;;8.57;6.47;;;7.50;99.90;;;;;;2614791;54;20494;-77
2022/02/03 15:50:25;;;;;;;7.13;4.83;;;7.50;99.90;;;;;;2613714;54;20416;-75
2022/02/03 16:16:55;;;;;;;7.53;5.10;;;7.40;99.90;;;;;;2612508;39;20845;-76
2022/02/03 16:19:26;;;;;;;8.17;5.50;;;7.30;99.90;;;;;;2613375;54;21172;-77
2022/02/03 16:22:02;;;;;;;6.13;5.00;;;7.20;99.90;;;;;;2614743;54;20411;-76
2022/02/03 16:41:01;;;;;;;10.90;8.50;;;7.40;99.90;;;;;;2615054;54;20482;-77
2022/02/03 16:50:24;;;;;;;9.17;8.23;;;7.40;99.90;;;;;;2615690;54;20454;-76
2022/02/03 16:54:23;;;;;;;12.43;10.10;;;7.40;99.90;;;;;;2616506;39;20958;-76
2022/02/03 16:56:54;;;;;;;15.00;10.40;;;7.40;99.90;;;;;;2615698;54;20387;-76
2022/02/03 16:59:19;;;;;;;10.00;7.30;;;7.40;99.90;;;;;;2615687;39;20810;-76
2022/02/03 17:01:45;;;;;;;8.70;7.80;;;7.40;99.90;;;;;;2614751;54;20483;-77
2022/02/03 17:04:17;;;;;;;12.63;6.70;;;7.30;99.90;;;;;;2615313;54;20143;-77
2022/02/03 17:06:45;;;;;;;13.20;9.10;;;7.30;99.90;;;;;;2615927;54;20454;-77
2022/02/03 17:09:11;;;;;;;11.00;9.20;;;7.30;99.90;;;;;;2615056;54;20410;-77
2022/02/03 17:11:37;;;;;;;8.40;7.27;;;7.30;99.90;;;;;;2616519;54;20435;-76
2022/02/03 17:14:04;;;;;;;20.93;10.70;;;7.30;99.90;;;;;;2616137;54;20936;-76
2022/02/03 17:16:30;;;;;;;12.87;10.80;;;7.30;99.90;;;;;;2615984;54;20147;-76
2022/02/03 17:18:57;;;;;;;21.77;16.40;;;7.30;99.90;;;;;;2613589;54;20420;-76
2022/02/03 17:21:26;;;;;;;17.87;14.17;;;7.30;99.90;;;;;;2616012;47;20467;-76
2022/02/03 17:23:52;;;;;;;22.53;11.80;;;7.40;99.90;;;;;;2615364;54;20539;-76
2022/02/03 17:26:30;;;;;;;15.63;9.90;;;7.40;99.90;;;;;;2615679;54;20487;-76
2022/02/03 17:29:09;;;;;;;32.00;22.10;;;7.50;99.90;;;;;;2615341;54;20407;-75
2022/02/03 17:52:14;;;;;;;15.17;10.60;;;7.50;99.90;;;;;;2615630;54;20422;-76
2022/02/03 18:31:13;;;;;;;15.63;12.50;;;7.10;99.90;;;;;;2614913;47;20511;-76
2022/02/03 18:56:29;;;;;;;18.97;14.00;;;6.90;99.90;;;;;;2614350;54;20443;-76
2022/02/03 19:02:12;;;;;;;19.77;14.10;;;6.70;99.90;;;;;;2614118;54;20423;-76
2022/02/03 20:12:00;;;;;;;29.87;16.03;;;6.80;99.90;;;;;;2613946;54;20431;-77
2022/02/03 20:14:27;;;;;;;24.63;15.37;;;6.80;99.90;;;;;;2613182;47;20487;-76
2022/02/03 20:16:53;;;;;;;29.43;17.50;;;6.80;99.90;;;;;;2611485;54;20189;-77
2022/02/03 20:19:19;;;;;;;26.13;17.50;;;6.90;99.90;;;;;;2613262;54;20402;-77
2022/02/03 20:21:46;;;;;;;20.03;12.63;;;6.80;99.90;;;;;;2614474;54;20462;-78
2022/02/03 20:24:12;;;;;;;26.60;15.73;;;6.80;99.90;;;;;;2613969;47;20444;-77
2022/02/03 20:26:43;;;;;;;29.10;19.13;;;6.80;99.90;;;;;;2614832;54;21270;-76
2022/02/03 20:29:10;;;;;;;31.63;16.30;;;6.70;99.90;;;;;;2614383;54;20408;-76
2022/02/03 20:31:35;;;;;;;28.97;19.70;;;6.70;99.90;;;;;;2614186;54;20440;-76
2022/02/03 20:34:01;;;;;;;22.93;14.37;;;6.70;99.90;;;;;;2613994;47;20575;-76
2022/02/03 20:36:27;;;;;;;25.67;19.00;;;6.70;99.90;;;;;;2615194;39;20785;-77
2022/02/03 20:38:53;;;;;;;30.60;18.83;;;6.70;99.90;;;;;;2613983;39;20821;-77
2022/02/03 20:41:20;;;;;;;24.57;16.27;;;6.70;99.90;;;;;;2614134;47;20534;-77
2022/02/03 20:43:46;;;;;;;25.87;16.13;;;6.80;99.90;;;;;;2614655;54;20238;-77
2022/02/03 20:46:13;;;;;;;23.40;16.50;;;6.70;99.90;;;;;;2615282;54;21011;-76
2022/02/03 20:48:45;;;;;;;24.30;14.57;;;6.80;99.90;;;;;;2615137;54;20431;-76
2022/02/03 20:51:16;;;;;;;28.93;18.83;;;6.80;99.90;;;;;;2614063;47;20434;-77
2022/02/03 20:53:44;;;;;;;31.53;20.20;;;6.80;99.90;;;;;;2615067;54;20436;-76
2022/02/03 20:56:12;;;;;;;27.70;18.37;;;6.80;99.90;;;;;;2615259;54;20427;-76
2022/02/03 20:58:39;;;;;;;30.03;18.73;;;6.90;99.90;;;;;;2614863;54;20427;-77
2022/02/03 21:01:15;;;;;;;24.20;15.47;;;6.80;99.90;;;;;;2615224;47;20427;-78
2022/02/03 21:03:44;;;;;;;24.43;15.40;;;6.80;99.90;;;;;;2614707;39;21003;-77
2022/02/03 21:06:12;;;;;;;25.97;17.57;;;6.80;99.90;;;;;;2616713;39;21201;-76
2022/02/03 21:08:41;;;;;;;31.67;18.17;;;6.90;99.90;;;;;;2615208;54;20415;-76
2022/02/03 21:11:07;;;;;;;25.30;17.17;;;6.80;99.90;;;;;;2616061;54;20447;-76
2022/02/03 21:13:34;;;;;;;17.77;12.93;;;6.90;99.90;;;;;;2615239;47;20419;-76
2022/02/03 21:16:02;;;;;;;22.53;15.57;;;6.90;99.90;;;;;;2614999;47;20427;-76
2022/02/03 21:18:35;;;;;;;27.67;21.33;;;6.90;99.90;;;;;;2614858;54;20400;-76
2022/02/03 21:21:01;;;;;;;26.33;18.60;;;6.90;99.90;;;;;;2616199;39;20828;-78
2022/02/03 21:23:27;;;;;;;33.53;17.90;;;7.00;99.90;;;;;;2615704;47;20470;-77
2022/02/03 21:25:56;;;;;;;26.90;19.03;;;7.00;99.90;;;;;;2615545;46;20626;-76
2022/02/03 21:28:31;;;;;;;13.00;8.70;;;7.00;99.90;;;;;;2614832;54;20403;-77
2022/02/03 21:30:59;;;;;;;22.20;14.57;;;7.00;99.90;;;;;;2616603;54;21039;-76
2022/02/03 21:33:32;;;;;;;33.13;21.30;;;7.00;99.90;;;;;;2614284;46;20431;-76
2022/02/03 21:36:10;;;;;;;26.50;17.67;;;7.00;99.90;;;;;;2616997;39;20952;-76
2022/02/03 21:38:39;;;;;;;21.20;14.27;;;7.00;99.90;;;;;;2614287;54;20816;-76
2022/02/03 21:41:05;;;;;;;30.97;18.13;;;7.00;99.90;;;;;;2615426;54;20512;-76
2022/02/03 21:43:32;;;;;;;29.53;15.57;;;7.00;99.90;;;;;;2613894;47;20459;-76
2022/02/03 21:45:58;;;;;;;26.93;18.90;;;7.00;99.90;;;;;;2615329;47;20510;-77
2022/02/03 21:48:24;;;;;;;32.83;20.07;;;7.00;99.90;;;;;;2614301;47;20435;-77
2022/02/03 21:50:51;;;;;;;21.10;12.80;;;7.00;99.90;;;;;;2615142;46;20471;-78
2022/02/03 21:53:20;;;;;;;25.70;16.60;;;7.00;99.90;;;;;;2615118;54;20404;-76
2022/02/03 21:55:47;;;;;;;23.57;14.60;;;7.00;99.90;;;;;;2615637;46;20419;-76
2022/02/03 21:58:14;;;;;;;27.80;19.07;;;7.00;99.90;;;;;;2615306;47;20419;-76
2022/02/03 22:00:40;;;;;;;19.93;14.77;;;7.10;99.90;;;;;;2616412;54;20420;-77
2022/02/03 22:03:06;;;;;;;23.43;16.50;;;7.00;99.90;;;;;;2613774;54;20471;-76
2022/02/03 22:05:33;;;;;;;17.30;12.03;;;7.10;99.90;;;;;;2615717;47;20427;-76
2022/02/03 22:08:00;;;;;;;30.20;17.00;;;7.10;99.90;;;;;;2615054;47;20438;-76
2022/02/03 22:10:27;;;;;;;18.53;13.63;;;7.10;99.90;;;;;;2615646;54;20478;-77
2022/02/03 22:12:52;;;;;;;20.77;16.20;;;7.10;99.90;;;;;;2615400;54;20987;-78
2022/02/03 22:15:19;;;;;;;25.50;18.03;;;7.10;99.90;;;;;;2615324;47;20447;-77
2022/02/03 22:17:47;;;;;;;19.67;13.70;;;7.10;99.90;;;;;;2615110;47;20171;-76
2022/02/03 22:20:20;;;;;;;23.60;16.80;;;7.00;99.90;;;;;;2614967;54;20445;-76
2022/02/03 22:23:08;;;;;;;23.43;16.27;;;7.10;99.90;;;;;;2614670;54;20435;-76
2022/02/03 22:44:56;;;;;;;27.10;18.30;;;7.00;99.90;;;;;;2612872;54;21314;-77
2022/02/03 22:50:20;;;;;;;19.57;13.10;;;7.10;99.90;;;;;;2613452;54;21276;-76
2022/02/03 22:52:46;;;;;;;26.33;19.10;;;7.00;99.90;;;;;;2614410;54;20431;-76
2022/02/03 22:55:15;;;;;;;20.30;12.63;;;7.00;99.90;;;;;;2613777;54;20246;-76
2022/02/03 22:57:47;;;;;;;24.37;19.30;;;7.00;99.90;;;;;;2612909;54;21003;-76
2022/02/03 23:00:20;;;;;;;25.53;16.80;;;7.10;99.90;;;;;;2614695;54;20935;-76
2022/02/03 23:02:46;;;;;;;22.40;14.70;;;7.10;99.90;;;;;;2613028;47;20399;-76
2022/02/03 23:05:13;;;;;;;26.10;16.70;;;7.00;99.90;;;;;;2614237;54;20412;-77
2022/02/03 23:08:03;;;;;;;22.37;16.60;;;7.00;99.90;;;;;;2614188;47;20210;-75
2022/02/03 23:10:44;;;;;;;29.37;18.03;;;7.00;99.90;;;;;;2614107;47;20451;-77
2022/02/03 23:13:23;;;;;;;31.73;20.50;;;7.10;99.90;;;;;;2614124;39;20831;-76
2022/02/03 23:16:04;;;;;;;34.07;17.83;;;7.00;99.90;;;;;;2614337;54;20427;-77
2022/02/03 23:18:58;;;;;;;21.13;16.00;;;7.00;99.90;;;;;;2614202;39;20837;-76
2022/02/03 23:23:52;;;;;;;27.83;17.83;;;7.00;99.90;;;;;;2614160;54;20394;-76
2022/02/03 23:26:21;;;;;;;25.60;19.13;;;6.90;99.90;;;;;;2614505;47;20474;-76
2022/02/03 23:28:48;;;;;;;26.53;17.57;;;6.90;99.90;;;;;;2615569;54;20450;-76
2022/02/03 23:31:19;;;;;;;28.17;20.40;;;7.00;99.90;;;;;;2615430;54;20427;-76
2022/02/03 23:33:45;;;;;;;37.43;16.03;;;7.00;99.90;;;;;;2615793;54;20375;-77
2022/02/03 23:36:10;;;;;;;29.70;19.30;;;7.00;99.90;;;;;;2614870;54;20519;-76
2022/02/03 23:38:45;;;;;;;27.20;16.73;;;6.90;99.90;;;;;;2615024;54;20155;-76
2022/02/03 23:44:13;;;;;;;26.77;19.63;;;7.00;99.90;;;;;;2615007;54;20491;-75
